sensor_id;sensor_type;location;lat;lon;timestamp;P1;durP1;ratioP1;P2;durP2;ratioP2
45420;SDS011;55462;47.042;8.292;2022-12-07T00:00:40;15.03;;;12.90;;
45420;SDS011;55462;47.042;8.292;2022-12-07T00:03:06;15.47;;;13.10;;
45420;SDS011;55462;47.042;8.292;2022-12-07T00:05:31;17.77;;;12.90;;
45420;SDS011;55462;47.042;8.292;2022-12-07T00:07:56;14.83;;;12.57;;
45420;SDS011;55462;47.042;8.292;2022-12-07T00:10:21;13.20;;;11.80;;
45420;SDS011;55462;47.042;8.292;2022-12-07T00:12:47;12.90;;;11.60;;
45420;SDS011;55462;47.042;8.292;2022-12-07T00:15:12;13.00;;;11.67;;
45420;SDS011;55462;47.042;8.292;2022-12-07T00:17:37;12.70;;;10.63;;
45420;SDS011;55462;47.042;8.292;2022-12-07T00:20:03;12.73;;;11.33;;
45420;SDS011;55462;47.042;8.292;2022-12-07T00:22:29;13.43;;;11.70;;
45420;SDS011;55462;47.042;8.292;2022-12-07T00:24:54;14.60;;;11.30;;
45420;SDS011;55462;47.042;8.292;2022-12-07T00:27:19;13.37;;;11.97;;
45420;SDS011;55462;47.042;8.292;2022-12-07T00:29:45;14.17;;;12.07;;
45420;SDS011;55462;47.042;8.292;2022-12-07T00:32:10;12.97;;;11.30;;
45420;SDS011;55462;47.042;8.292;2022-12-07T00:34:35;13.47;;;12.07;;
45420;SDS011;55462;47.042;8.292;2022-12-07T00:37:00;14.03;;;12.33;;
45420;SDS011;55462;47.042;8.292;2022-12-07T00:39:26;13.03;;;11.53;;
45420;SDS011;55462;47.042;8.292;2022-12-07T00:41:51;14.17;;;12.67;;
45420;SDS011;55462;47.042;8.292;2022-12-07T00:44:17;13.03;;;11.63;;
45420;SDS011;55462;47.042;8.292;2022-12-07T00:46:42;15.17;;;11.43;;
45420;SDS011;55462;47.042;8.292;2022-12-07T00:49:07;12.37;;;11.17;;
45420;SDS011;55462;47.042;8.292;2022-12-07T00:51:33;13.43;;;12.03;;
45420;SDS011;55462;47.042;8.292;2022-12-07T00:53:58;12.70;;;10.87;;
45420;SDS011;55462;47.042;8.292;2022-12-07T00:56:24;13.13;;;11.70;;
45420;SDS011;55462;47.042;8.292;2022-12-07T00:58:52;12.23;;;11.03;;
45420;SDS011;55462;47.042;8.292;2022-12-07T01:01:18;12.20;;;10.90;;
45420;SDS011;55462;47.042;8.292;2022-12-07T01:03:44;12.80;;;11.47;;
45420;SDS011;55462;47.042;8.292;2022-12-07T01:06:09;12.83;;;11.30;;
45420;SDS011;55462;47.042;8.292;2022-12-07T01:08:39;12.37;;;11.03;;
45420;SDS011;55462;47.042;8.292;2022-12-07T01:11:06;14.63;;;13.13;;
45420;SDS011;55462;47.042;8.292;2022-12-07T01:13:32;12.97;;;11.67;;
45420;SDS011;55462;47.042;8.292;2022-12-07T01:15:59;14.47;;;12.97;;
45420;SDS011;55462;47.042;8.292;2022-12-07T01:18:26;13.43;;;12.03;;
45420;SDS011;55462;47.042;8.292;2022-12-07T01:20:59;12.70;;;11.40;;
45420;SDS011;55462;47.042;8.292;2022-12-07T01:23:27;12.40;;;11.20;;
45420;SDS011;55462;47.042;8.292;2022-12-07T01:26:00;13.30;;;12.00;;
45420;SDS011;55462;47.042;8.292;2022-12-07T01:28:27;13.43;;;12.13;;
45420;SDS011;55462;47.042;8.292;2022-12-07T01:30:59;13.03;;;11.80;;
45420;SDS011;55462;47.042;8.292;2022-12-07T01:33:27;13.50;;;12.20;;
45420;SDS011;55462;47.042;8.292;2022-12-07T01:35:53;13.37;;;12.07;;
45420;SDS011;55462;47.042;8.292;2022-12-07T01:38:19;14.17;;;12.67;;
45420;SDS011;55462;47.042;8.292;2022-12-07T01:40:44;15.37;;;13.80;;
45420;SDS011;55462;47.042;8.292;2022-12-07T01:43:15;13.63;;;12.23;;
45420;SDS011;55462;47.042;8.292;2022-12-07T01:45:42;13.80;;;12.33;;
45420;SDS011;55462;47.042;8.292;2022-12-07T01:48:08;14.07;;;12.67;;
45420;SDS011;55462;47.042;8.292;2022-12-07T01:50:35;14.13;;;12.80;;
45420;SDS011;55462;47.042;8.292;2022-12-07T01:53:01;14.73;;;13.27;;
45420;SDS011;55462;47.042;8.292;2022-12-07T01:55:28;14.73;;;13.23;;
45420;SDS011;55462;47.042;8.292;2022-12-07T01:57:54;14.10;;;12.67;;
45420;SDS011;55462;47.042;8.292;2022-12-07T02:00:20;14.87;;;11.83;;
45420;SDS011;55462;47.042;8.292;2022-12-07T02:02:53;15.23;;;12.33;;
45420;SDS011;55462;47.042;8.292;2022-12-07T02:05:29;15.10;;;12.63;;
45420;SDS011;55462;47.042;8.292;2022-12-07T02:07:55;15.00;;;13.40;;
45420;SDS011;55462;47.042;8.292;2022-12-07T02:10:23;14.43;;;12.93;;
45420;SDS011;55462;47.042;8.292;2022-12-07T02:13:03;15.33;;;13.73;;
45420;SDS011;55462;47.042;8.292;2022-12-07T02:15:39;14.70;;;13.20;;
45420;SDS011;55462;47.042;8.292;2022-12-07T02:21:15;14.13;;;12.70;;
45420;SDS011;55462;47.042;8.292;2022-12-07T02:24:13;14.67;;;13.03;;
45420;SDS011;55462;47.042;8.292;2022-12-07T02:29:45;17.20;;;13.47;;
45420;SDS011;55462;47.042;8.292;2022-12-07T02:32:37;14.27;;;12.77;;
45420;SDS011;55462;47.042;8.292;2022-12-07T02:35:17;14.07;;;12.53;;
45420;SDS011;55462;47.042;8.292;2022-12-07T02:40:44;15.00;;;13.50;;
45420;SDS011;55462;47.042;8.292;2022-12-07T02:43:21;13.70;;;12.30;;
45420;SDS011;55462;47.042;8.292;2022-12-07T02:45:48;15.30;;;13.73;;
45420;SDS011;55462;47.042;8.292;2022-12-07T02:48:16;15.10;;;13.50;;
45420;SDS011;55462;47.042;8.292;2022-12-07T02:50:47;15.87;;;14.30;;
45420;SDS011;55462;47.042;8.292;2022-12-07T02:55:55;14.97;;;13.40;;
45420;SDS011;55462;47.042;8.292;2022-12-07T03:03:57;15.27;;;13.77;;
45420;SDS011;55462;47.042;8.292;2022-12-07T03:06:30;14.70;;;13.30;;
45420;SDS011;55462;47.042;8.292;2022-12-07T03:11:50;16.10;;;13.60;;
45420;SDS011;55462;47.042;8.292;2022-12-07T03:14:25;15.17;;;13.57;;
45420;SDS011;55462;47.042;8.292;2022-12-07T03:16:57;17.20;;;14.20;;
45420;SDS011;55462;47.042;8.292;2022-12-07T03:19:26;14.90;;;13.33;;
45420;SDS011;55462;47.042;8.292;2022-12-07T03:24:24;15.23;;;13.63;;
45420;SDS011;55462;47.042;8.292;2022-12-07T03:27:18;15.27;;;13.67;;
45420;SDS011;55462;47.042;8.292;2022-12-07T03:29:50;13.97;;;12.57;;
45420;SDS011;55462;47.042;8.292;2022-12-07T03:32:36;15.03;;;13.03;;
45420;SDS011;55462;47.042;8.292;2022-12-07T03:35:05;15.43;;;13.83;;
45420;SDS011;55462;47.042;8.292;2022-12-07T03:37:35;16.43;;;13.33;;
45420;SDS011;55462;47.042;8.292;2022-12-07T03:42:27;14.17;;;12.77;;
45420;SDS011;55462;47.042;8.292;2022-12-07T03:44:54;14.20;;;12.70;;
45420;SDS011;55462;47.042;8.292;2022-12-07T03:47:26;14.20;;;12.63;;
45420;SDS011;55462;47.042;8.292;2022-12-07T03:49:56;14.93;;;13.27;;
45420;SDS011;55462;47.042;8.292;2022-12-07T03:57:35;16.73;;;14.20;;
45420;SDS011;55462;47.042;8.292;2022-12-07T04:00:03;14.77;;;13.27;;
45420;SDS011;55462;47.042;8.292;2022-12-07T04:02:29;15.03;;;13.47;;
45420;SDS011;55462;47.042;8.292;2022-12-07T04:04:55;14.67;;;13.17;;
45420;SDS011;55462;47.042;8.292;2022-12-07T04:07:21;16.77;;;14.33;;
45420;SDS011;55462;47.042;8.292;2022-12-07T04:09:46;16.57;;;13.07;;
45420;SDS011;55462;47.042;8.292;2022-12-07T04:12:12;14.77;;;13.10;;
45420;SDS011;55462;47.042;8.292;2022-12-07T04:14:38;14.33;;;12.90;;
45420;SDS011;55462;47.042;8.292;2022-12-07T04:17:03;16.67;;;13.90;;
45420;SDS011;55462;47.042;8.292;2022-12-07T04:19:30;16.47;;;13.87;;
45420;SDS011;55462;47.042;8.292;2022-12-07T04:21:57;14.93;;;13.30;;
45420;SDS011;55462;47.042;8.292;2022-12-07T04:24:23;15.57;;;13.97;;
45420;SDS011;55462;47.042;8.292;2022-12-07T04:26:49;14.90;;;13.27;;
45420;SDS011;55462;47.042;8.292;2022-12-07T04:29:15;14.23;;;12.50;;
45420;SDS011;55462;47.042;8.292;2022-12-07T04:31:41;16.13;;;14.43;;
45420;SDS011;55462;47.042;8.292;2022-12-07T04:34:06;15.90;;;13.93;;
45420;SDS011;55462;47.042;8.292;2022-12-07T04:36:32;14.10;;;12.60;;
45420;SDS011;55462;47.042;8.292;2022-12-07T04:38:58;15.30;;;13.50;;
45420;SDS011;55462;47.042;8.292;2022-12-07T04:41:24;14.47;;;12.93;;
45420;SDS011;55462;47.042;8.292;2022-12-07T04:43:53;14.20;;;12.73;;
45420;SDS011;55462;47.042;8.292;2022-12-07T04:46:23;14.30;;;12.80;;
45420;SDS011;55462;47.042;8.292;2022-12-07T04:48:49;14.67;;;13.07;;
45420;SDS011;55462;47.042;8.292;2022-12-07T04:51:17;14.30;;;12.80;;
45420;SDS011;55462;47.042;8.292;2022-12-07T04:53:45;14.20;;;12.67;;
45420;SDS011;55462;47.042;8.292;2022-12-07T04:56:10;14.77;;;13.37;;
45420;SDS011;55462;47.042;8.292;2022-12-07T04:58:35;13.97;;;12.47;;
45420;SDS011;55462;47.042;8.292;2022-12-07T05:01:01;14.73;;;12.63;;
45420;SDS011;55462;47.042;8.292;2022-12-07T05:03:26;14.30;;;12.80;;
45420;SDS011;55462;47.042;8.292;2022-12-07T05:05:51;13.80;;;12.40;;
45420;SDS011;55462;47.042;8.292;2022-12-07T05:08:17;14.57;;;12.90;;
45420;SDS011;55462;47.042;8.292;2022-12-07T05:10:42;13.70;;;12.30;;
45420;SDS011;55462;47.042;8.292;2022-12-07T05:13:07;14.07;;;12.67;;
45420;SDS011;55462;47.042;8.292;2022-12-07T05:15:33;13.30;;;11.93;;
45420;SDS011;55462;47.042;8.292;2022-12-07T05:17:58;13.20;;;11.80;;
45420;SDS011;55462;47.042;8.292;2022-12-07T05:20:23;13.90;;;12.27;;
45420;SDS011;55462;47.042;8.292;2022-12-07T05:22:49;13.10;;;11.70;;
45420;SDS011;55462;47.042;8.292;2022-12-07T05:25:14;12.70;;;11.37;;
45420;SDS011;55462;47.042;8.292;2022-12-07T05:27:39;12.73;;;11.43;;
45420;SDS011;55462;47.042;8.292;2022-12-07T05:30:05;11.47;;;10.23;;
45420;SDS011;55462;47.042;8.292;2022-12-07T05:32:31;13.10;;;11.70;;
45420;SDS011;55462;47.042;8.292;2022-12-07T05:34:56;12.07;;;10.63;;
45420;SDS011;55462;47.042;8.292;2022-12-07T05:37:21;12.83;;;11.47;;
45420;SDS011;55462;47.042;8.292;2022-12-07T05:39:47;12.90;;;11.57;;
45420;SDS011;55462;47.042;8.292;2022-12-07T05:42:12;12.10;;;10.90;;
45420;SDS011;55462;47.042;8.292;2022-12-07T05:44:44;11.80;;;10.60;;
45420;SDS011;55462;47.042;8.292;2022-12-07T05:47:11;12.17;;;10.87;;
45420;SDS011;55462;47.042;8.292;2022-12-07T05:49:37;13.33;;;11.40;;
45420;SDS011;55462;47.042;8.292;2022-12-07T05:52:03;13.83;;;12.33;;
45420;SDS011;55462;47.042;8.292;2022-12-07T05:54:28;13.83;;;12.43;;
45420;SDS011;55462;47.042;8.292;2022-12-07T05:56:54;13.67;;;11.60;;
45420;SDS011;55462;47.042;8.292;2022-12-07T05:59:19;13.17;;;11.83;;
45420;SDS011;55462;47.042;8.292;2022-12-07T06:02:09;13.90;;;12.30;;
45420;SDS011;55462;47.042;8.292;2022-12-07T06:04:35;13.47;;;12.07;;
45420;SDS011;55462;47.042;8.292;2022-12-07T06:07:02;12.93;;;11.63;;
45420;SDS011;55462;47.042;8.292;2022-12-07T06:09:28;14.90;;;12.87;;
45420;SDS011;55462;47.042;8.292;2022-12-07T06:11:54;13.03;;;10.73;;
45420;SDS011;55462;47.042;8.292;2022-12-07T06:14:39;12.90;;;11.53;;
45420;SDS011;55462;47.042;8.292;2022-12-07T06:17:05;12.73;;;11.43;;
45420;SDS011;55462;47.042;8.292;2022-12-07T06:19:30;11.50;;;10.30;;
45420;SDS011;55462;47.042;8.292;2022-12-07T06:21:56;13.07;;;11.43;;
45420;SDS011;55462;47.042;8.292;2022-12-07T06:24:21;12.53;;;11.30;;
45420;SDS011;55462;47.042;8.292;2022-12-07T06:26:46;11.40;;;10.30;;
45420;SDS011;55462;47.042;8.292;2022-12-07T06:29:12;13.17;;;11.77;;
45420;SDS011;55462;47.042;8.292;2022-12-07T06:31:38;12.93;;;11.60;;
45420;SDS011;55462;47.042;8.292;2022-12-07T06:34:04;14.03;;;12.60;;
45420;SDS011;55462;47.042;8.292;2022-12-07T06:36:31;12.97;;;11.67;;
45420;SDS011;55462;47.042;8.292;2022-12-07T06:38:56;15.97;;;12.47;;
45420;SDS011;55462;47.042;8.292;2022-12-07T06:41:22;14.43;;;12.23;;
45420;SDS011;55462;47.042;8.292;2022-12-07T06:43:47;13.10;;;11.63;;
45420;SDS011;55462;47.042;8.292;2022-12-07T06:46:13;13.67;;;11.70;;
45420;SDS011;55462;47.042;8.292;2022-12-07T06:48:39;13.67;;;11.93;;
45420;SDS011;55462;47.042;8.292;2022-12-07T06:51:05;14.27;;;12.03;;
45420;SDS011;55462;47.042;8.292;2022-12-07T06:53:31;13.20;;;11.80;;
45420;SDS011;55462;47.042;8.292;2022-12-07T06:55:56;14.87;;;12.73;;
45420;SDS011;55462;47.042;8.292;2022-12-07T06:58:21;14.37;;;12.43;;
45420;SDS011;55462;47.042;8.292;2022-12-07T07:00:47;13.93;;;11.93;;
45420;SDS011;55462;47.042;8.292;2022-12-07T07:03:13;15.27;;;12.00;;
45420;SDS011;55462;47.042;8.292;2022-12-07T07:05:39;14.67;;;12.03;;
45420;SDS011;55462;47.042;8.292;2022-12-07T07:08:04;13.73;;;11.90;;
45420;SDS011;55462;47.042;8.292;2022-12-07T07:10:30;13.07;;;11.57;;
45420;SDS011;55462;47.042;8.292;2022-12-07T07:12:55;15.13;;;13.23;;
45420;SDS011;55462;47.042;8.292;2022-12-07T07:15:20;12.70;;;11.27;;
45420;SDS011;55462;47.042;8.292;2022-12-07T07:17:46;12.67;;;11.33;;
45420;SDS011;55462;47.042;8.292;2022-12-07T07:20:11;13.83;;;12.33;;
45420;SDS011;55462;47.042;8.292;2022-12-07T07:22:37;13.57;;;12.17;;
45420;SDS011;55462;47.042;8.292;2022-12-07T07:25:03;12.57;;;11.27;;
45420;SDS011;55462;47.042;8.292;2022-12-07T07:27:28;13.63;;;12.23;;
45420;SDS011;55462;47.042;8.292;2022-12-07T07:29:54;14.07;;;12.37;;
45420;SDS011;55462;47.042;8.292;2022-12-07T07:32:19;14.73;;;12.23;;
45420;SDS011;55462;47.042;8.292;2022-12-07T07:34:46;12.73;;;11.43;;
45420;SDS011;55462;47.042;8.292;2022-12-07T07:37:11;14.10;;;12.60;;
45420;SDS011;55462;47.042;8.292;2022-12-07T07:39:37;13.20;;;11.87;;
45420;SDS011;55462;47.042;8.292;2022-12-07T07:42:03;13.40;;;11.87;;
45420;SDS011;55462;47.042;8.292;2022-12-07T07:44:28;15.10;;;13.40;;
45420;SDS011;55462;47.042;8.292;2022-12-07T07:46:54;14.93;;;12.53;;
45420;SDS011;55462;47.042;8.292;2022-12-07T07:49:19;14.00;;;12.40;;
45420;SDS011;55462;47.042;8.292;2022-12-07T07:51:44;15.77;;;13.40;;
45420;SDS011;55462;47.042;8.292;2022-12-07T07:54:10;15.23;;;13.03;;
45420;SDS011;55462;47.042;8.292;2022-12-07T07:56:35;15.17;;;13.57;;
45420;SDS011;55462;47.042;8.292;2022-12-07T07:59:00;15.27;;;13.40;;
45420;SDS011;55462;47.042;8.292;2022-12-07T08:01:25;17.53;;;13.87;;
45420;SDS011;55462;47.042;8.292;2022-12-07T08:03:51;15.53;;;13.60;;
45420;SDS011;55462;47.042;8.292;2022-12-07T08:06:16;16.00;;;13.27;;
45420;SDS011;55462;47.042;8.292;2022-12-07T08:08:41;18.27;;;14.70;;
45420;SDS011;55462;47.042;8.292;2022-12-07T08:11:07;14.77;;;13.17;;
45420;SDS011;55462;47.042;8.292;2022-12-07T08:13:33;15.53;;;13.83;;
45420;SDS011;55462;47.042;8.292;2022-12-07T08:16:02;15.77;;;13.00;;
45420;SDS011;55462;47.042;8.292;2022-12-07T08:18:29;16.43;;;14.10;;
45420;SDS011;55462;47.042;8.292;2022-12-07T08:20:58;17.03;;;14.33;;
45420;SDS011;55462;47.042;8.292;2022-12-07T08:23:25;15.30;;;13.10;;
45420;SDS011;55462;47.042;8.292;2022-12-07T08:25:51;15.13;;;13.43;;
45420;SDS011;55462;47.042;8.292;2022-12-07T08:28:16;15.80;;;13.73;;
45420;SDS011;55462;47.042;8.292;2022-12-07T08:30:41;15.33;;;13.67;;
45420;SDS011;55462;47.042;8.292;2022-12-07T08:33:07;15.23;;;13.27;;
45420;SDS011;55462;47.042;8.292;2022-12-07T08:35:32;15.70;;;13.87;;
45420;SDS011;55462;47.042;8.292;2022-12-07T08:37:58;16.17;;;13.73;;
45420;SDS011;55462;47.042;8.292;2022-12-07T08:40:24;14.23;;;12.70;;
45420;SDS011;55462;47.042;8.292;2022-12-07T08:42:49;13.47;;;12.07;;
45420;SDS011;55462;47.042;8.292;2022-12-07T08:45:15;16.43;;;14.73;;
45420;SDS011;55462;47.042;8.292;2022-12-07T08:47:43;17.63;;;14.13;;
45420;SDS011;55462;47.042;8.292;2022-12-07T08:50:11;16.33;;;14.17;;
45420;SDS011;55462;47.042;8.292;2022-12-07T08:52:37;14.47;;;12.97;;
45420;SDS011;55462;47.042;8.292;2022-12-07T08:55:03;16.27;;;13.00;;
45420;SDS011;55462;47.042;8.292;2022-12-07T08:57:29;15.63;;;13.93;;
45420;SDS011;55462;47.042;8.292;2022-12-07T08:59:55;15.17;;;13.40;;
45420;SDS011;55462;47.042;8.292;2022-12-07T09:02:21;16.90;;;13.73;;
45420;SDS011;55462;47.042;8.292;2022-12-07T09:04:46;14.47;;;12.93;;
45420;SDS011;55462;47.042;8.292;2022-12-07T09:07:11;16.63;;;13.30;;
45420;SDS011;55462;47.042;8.292;2022-12-07T09:09:37;15.73;;;14.03;;
45420;SDS011;55462;47.042;8.292;2022-12-07T09:12:02;15.80;;;13.50;;
45420;SDS011;55462;47.042;8.292;2022-12-07T09:14:28;15.77;;;14.07;;
45420;SDS011;55462;47.042;8.292;2022-12-07T09:16:53;16.27;;;14.20;;
45420;SDS011;55462;47.042;8.292;2022-12-07T09:19:18;16.50;;;14.13;;
45420;SDS011;55462;47.042;8.292;2022-12-07T09:21:44;16.13;;;14.40;;
45420;SDS011;55462;47.042;8.292;2022-12-07T09:24:09;17.73;;;14.83;;
45420;SDS011;55462;47.042;8.292;2022-12-07T09:26:37;18.03;;;15.67;;
45420;SDS011;55462;47.042;8.292;2022-12-07T09:29:04;18.43;;;15.53;;
45420;SDS011;55462;47.042;8.292;2022-12-07T09:31:29;17.50;;;15.20;;
45420;SDS011;55462;47.042;8.292;2022-12-07T09:33:55;20.33;;;16.87;;
45420;SDS011;55462;47.042;8.292;2022-12-07T09:36:21;20.17;;;16.00;;
45420;SDS011;55462;47.042;8.292;2022-12-07T09:38:47;18.10;;;15.20;;
45420;SDS011;55462;47.042;8.292;2022-12-07T09:41:12;19.97;;;16.77;;
45420;SDS011;55462;47.042;8.292;2022-12-07T09:43:37;18.07;;;15.87;;
45420;SDS011;55462;47.042;8.292;2022-12-07T09:46:04;18.30;;;15.27;;
45420;SDS011;55462;47.042;8.292;2022-12-07T09:48:34;21.17;;;16.63;;
45420;SDS011;55462;47.042;8.292;2022-12-07T09:51:25;19.20;;;17.00;;
45420;SDS011;55462;47.042;8.292;2022-12-07T09:53:50;21.47;;;16.70;;
45420;SDS011;55462;47.042;8.292;2022-12-07T09:56:16;26.03;;;16.37;;
45420;SDS011;55462;47.042;8.292;2022-12-07T09:58:43;21.93;;;17.37;;
45420;SDS011;55462;47.042;8.292;2022-12-07T10:03:40;19.00;;;16.93;;
45420;SDS011;55462;47.042;8.292;2022-12-07T10:06:10;26.93;;;17.83;;
45420;SDS011;55462;47.042;8.292;2022-12-07T10:08:37;18.90;;;16.70;;
45420;SDS011;55462;47.042;8.292;2022-12-07T10:11:02;20.63;;;17.73;;
45420;SDS011;55462;47.042;8.292;2022-12-07T10:13:38;28.93;;;19.50;;
45420;SDS011;55462;47.042;8.292;2022-12-07T10:16:05;24.73;;;18.60;;
45420;SDS011;55462;47.042;8.292;2022-12-07T10:23:34;24.77;;;18.83;;
45420;SDS011;55462;47.042;8.292;2022-12-07T10:26:17;24.93;;;19.10;;
45420;SDS011;55462;47.042;8.292;2022-12-07T10:28:45;21.90;;;18.00;;
45420;SDS011;55462;47.042;8.292;2022-12-07T10:31:15;22.97;;;19.00;;
45420;SDS011;55462;47.042;8.292;2022-12-07T10:33:49;27.80;;;19.43;;
45420;SDS011;55462;47.042;8.292;2022-12-07T10:38:47;27.80;;;19.43;;
45420;SDS011;55462;47.042;8.292;2022-12-07T10:41:14;26.87;;;19.43;;
45420;SDS011;55462;47.042;8.292;2022-12-07T10:43:46;25.93;;;19.60;;
45420;SDS011;55462;47.042;8.292;2022-12-07T10:49:38;24.17;;;19.23;;
45420;SDS011;55462;47.042;8.292;2022-12-07T11:00:03;26.27;;;18.17;;
45420;SDS011;55462;47.042;8.292;2022-12-07T11:02:47;24.77;;;19.23;;
45420;SDS011;55462;47.042;8.292;2022-12-07T11:08:17;26.57;;;19.50;;
45420;SDS011;55462;47.042;8.292;2022-12-07T11:11:12;29.73;;;21.40;;
45420;SDS011;55462;47.042;8.292;2022-12-07T11:16:16;27.70;;;20.50;;
45420;SDS011;55462;47.042;8.292;2022-12-07T11:18:58;29.70;;;20.47;;
45420;SDS011;55462;47.042;8.292;2022-12-07T11:27:18;28.30;;;21.47;;
45420;SDS011;55462;47.042;8.292;2022-12-07T11:30:01;27.17;;;20.83;;
45420;SDS011;55462;47.042;8.292;2022-12-07T11:38:16;39.60;;;21.43;;
45420;SDS011;55462;47.042;8.292;2022-12-07T11:40:43;30.37;;;22.50;;
45420;SDS011;55462;47.042;8.292;2022-12-07T11:43:27;29.93;;;21.97;;
45420;SDS011;55462;47.042;8.292;2022-12-07T11:48:28;30.60;;;21.90;;
45420;SDS011;55462;47.042;8.292;2022-12-07T11:50:59;29.37;;;22.03;;
45420;SDS011;55462;47.042;8.292;2022-12-07T11:53:26;32.13;;;23.97;;
45420;SDS011;55462;47.042;8.292;2022-12-07T12:03:51;30.43;;;21.43;;
45420;SDS011;55462;47.042;8.292;2022-12-07T12:06:18;31.87;;;22.93;;
45420;SDS011;55462;47.042;8.292;2022-12-07T12:08:53;29.57;;;20.97;;
45420;SDS011;55462;47.042;8.292;2022-12-07T12:22:20;33.97;;;21.67;;
45420;SDS011;55462;47.042;8.292;2022-12-07T12:24:45;37.17;;;23.10;;
45420;SDS011;55462;47.042;8.292;2022-12-07T12:27:33;33.83;;;23.03;;
45420;SDS011;55462;47.042;8.292;2022-12-07T12:30:00;32.50;;;22.63;;
45420;SDS011;55462;47.042;8.292;2022-12-07T12:42:56;31.60;;;21.73;;
45420;SDS011;55462;47.042;8.292;2022-12-07T12:45:26;38.07;;;24.30;;
45420;SDS011;55462;47.042;8.292;2022-12-07T12:50:19;31.27;;;21.77;;
45420;SDS011;55462;47.042;8.292;2022-12-07T12:52:48;32.90;;;21.03;;
45420;SDS011;55462;47.042;8.292;2022-12-07T12:55:17;31.23;;;21.23;;
45420;SDS011;55462;47.042;8.292;2022-12-07T12:57:45;30.30;;;22.93;;
45420;SDS011;55462;47.042;8.292;2022-12-07T13:02:50;33.90;;;22.03;;
45420;SDS011;55462;47.042;8.292;2022-12-07T13:05:24;33.80;;;21.77;;
45420;SDS011;55462;47.042;8.292;2022-12-07T13:08:01;34.20;;;23.47;;
45420;SDS011;55462;47.042;8.292;2022-12-07T13:15:34;35.83;;;23.10;;
45420;SDS011;55462;47.042;8.292;2022-12-07T13:20:54;32.73;;;21.67;;
45420;SDS011;55462;47.042;8.292;2022-12-07T13:28:48;27.60;;;20.70;;
45420;SDS011;55462;47.042;8.292;2022-12-07T13:33:58;31.70;;;22.33;;
45420;SDS011;55462;47.042;8.292;2022-12-07T13:36:25;31.97;;;22.07;;
45420;SDS011;55462;47.042;8.292;2022-12-07T13:39:16;32.63;;;20.83;;
45420;SDS011;55462;47.042;8.292;2022-12-07T13:41:43;31.00;;;20.33;;
45420;SDS011;55462;47.042;8.292;2022-12-07T13:44:10;31.40;;;21.13;;
45420;SDS011;55462;47.042;8.292;2022-12-07T13:49:17;30.13;;;21.33;;
45420;SDS011;55462;47.042;8.292;2022-12-07T13:51:45;31.57;;;21.10;;
45420;SDS011;55462;47.042;8.292;2022-12-07T13:54:11;33.23;;;20.23;;
45420;SDS011;55462;47.042;8.292;2022-12-07T13:56:37;35.83;;;22.53;;
45420;SDS011;55462;47.042;8.292;2022-12-07T13:59:12;29.97;;;20.83;;
45420;SDS011;55462;47.042;8.292;2022-12-07T14:01:40;30.40;;;21.20;;
45420;SDS011;55462;47.042;8.292;2022-12-07T14:06:50;27.13;;;19.23;;
45420;SDS011;55462;47.042;8.292;2022-12-07T14:09:17;29.63;;;20.10;;
45420;SDS011;55462;47.042;8.292;2022-12-07T14:11:50;29.57;;;20.50;;
45420;SDS011;55462;47.042;8.292;2022-12-07T14:14:19;29.27;;;20.40;;
45420;SDS011;55462;47.042;8.292;2022-12-07T14:16:56;31.30;;;20.50;;
45420;SDS011;55462;47.042;8.292;2022-12-07T14:19:40;29.23;;;19.80;;
45420;SDS011;55462;47.042;8.292;2022-12-07T14:22:22;28.27;;;18.97;;
45420;SDS011;55462;47.042;8.292;2022-12-07T14:24:48;29.40;;;20.20;;
45420;SDS011;55462;47.042;8.292;2022-12-07T14:27:21;27.30;;;19.20;;
45420;SDS011;55462;47.042;8.292;2022-12-07T14:29:47;28.13;;;18.70;;
45420;SDS011;55462;47.042;8.292;2022-12-07T14:35:01;30.70;;;20.17;;
45420;SDS011;55462;47.042;8.292;2022-12-07T14:37:27;25.50;;;18.60;;
45420;SDS011;55462;47.042;8.292;2022-12-07T14:39:53;27.87;;;19.07;;
45420;SDS011;55462;47.042;8.292;2022-12-07T14:42:19;31.57;;;19.27;;
45420;SDS011;55462;47.042;8.292;2022-12-07T14:44:45;27.43;;;18.93;;
45420;SDS011;55462;47.042;8.292;2022-12-07T14:47:10;31.63;;;18.37;;
45420;SDS011;55462;47.042;8.292;2022-12-07T14:49:36;26.97;;;18.13;;
45420;SDS011;55462;47.042;8.292;2022-12-07T14:52:01;25.43;;;17.20;;
45420;SDS011;55462;47.042;8.292;2022-12-07T14:54:27;28.93;;;19.50;;
45420;SDS011;55462;47.042;8.292;2022-12-07T14:56:55;29.07;;;19.13;;
45420;SDS011;55462;47.042;8.292;2022-12-07T14:59:20;24.00;;;17.73;;
45420;SDS011;55462;47.042;8.292;2022-12-07T15:01:45;29.83;;;18.67;;
45420;SDS011;55462;47.042;8.292;2022-12-07T15:04:11;29.23;;;18.67;;
45420;SDS011;55462;47.042;8.292;2022-12-07T15:06:36;25.77;;;17.83;;
45420;SDS011;55462;47.042;8.292;2022-12-07T15:09:02;26.53;;;18.70;;
45420;SDS011;55462;47.042;8.292;2022-12-07T15:11:27;25.10;;;18.70;;
45420;SDS011;55462;47.042;8.292;2022-12-07T15:13:53;24.90;;;18.30;;
45420;SDS011;55462;47.042;8.292;2022-12-07T15:16:33;23.97;;;16.30;;
45420;SDS011;55462;47.042;8.292;2022-12-07T15:18:59;22.60;;;15.93;;
45420;SDS011;55462;47.042;8.292;2022-12-07T15:21:25;22.20;;;15.53;;
45420;SDS011;55462;47.042;8.292;2022-12-07T15:23:50;21.27;;;14.60;;
45420;SDS011;55462;47.042;8.292;2022-12-07T15:26:16;24.37;;;15.57;;
45420;SDS011;55462;47.042;8.292;2022-12-07T15:28:41;19.53;;;14.63;;
45420;SDS011;55462;47.042;8.292;2022-12-07T15:31:17;17.97;;;14.30;;
45420;SDS011;55462;47.042;8.292;2022-12-07T15:33:42;15.70;;;13.20;;
45420;SDS011;55462;47.042;8.292;2022-12-07T15:36:08;17.80;;;13.90;;
45420;SDS011;55462;47.042;8.292;2022-12-07T15:38:51;19.87;;;13.73;;
45420;SDS011;55462;47.042;8.292;2022-12-07T15:41:16;17.33;;;13.13;;
45420;SDS011;55462;47.042;8.292;2022-12-07T15:43:42;21.40;;;14.27;;
45420;SDS011;55462;47.042;8.292;2022-12-07T15:46:37;16.70;;;14.10;;
45420;SDS011;55462;47.042;8.292;2022-12-07T15:49:05;19.30;;;15.03;;
45420;SDS011;55462;47.042;8.292;2022-12-07T15:51:32;20.67;;;14.73;;
45420;SDS011;55462;47.042;8.292;2022-12-07T15:53:58;18.33;;;13.63;;
45420;SDS011;55462;47.042;8.292;2022-12-07T15:56:23;18.80;;;13.63;;
45420;SDS011;55462;47.042;8.292;2022-12-07T15:58:49;16.43;;;13.43;;
45420;SDS011;55462;47.042;8.292;2022-12-07T16:01:15;19.60;;;14.67;;
45420;SDS011;55462;47.042;8.292;2022-12-07T16:03:42;24.40;;;18.33;;
45420;SDS011;55462;47.042;8.292;2022-12-07T16:06:08;19.93;;;15.50;;
45420;SDS011;55462;47.042;8.292;2022-12-07T16:08:33;20.87;;;14.50;;
45420;SDS011;55462;47.042;8.292;2022-12-07T16:10:59;17.23;;;14.93;;
45420;SDS011;55462;47.042;8.292;2022-12-07T16:13:24;16.13;;;14.00;;
45420;SDS011;55462;47.042;8.292;2022-12-07T16:15:49;19.37;;;15.47;;
45420;SDS011;55462;47.042;8.292;2022-12-07T16:18:15;17.07;;;13.70;;
45420;SDS011;55462;47.042;8.292;2022-12-07T16:20:40;19.67;;;14.07;;
45420;SDS011;55462;47.042;8.292;2022-12-07T16:23:06;17.63;;;15.07;;
45420;SDS011;55462;47.042;8.292;2022-12-07T16:25:32;19.03;;;14.30;;
45420;SDS011;55462;47.042;8.292;2022-12-07T16:27:57;19.27;;;15.37;;
45420;SDS011;55462;47.042;8.292;2022-12-07T16:30:23;18.63;;;14.23;;
45420;SDS011;55462;47.042;8.292;2022-12-07T16:32:48;19.17;;;14.37;;
45420;SDS011;55462;47.042;8.292;2022-12-07T16:35:13;21.20;;;15.13;;